logo
Rechercher aéroport 
image banner adimage banner adimage banner ad
image banner ad

CN39 - Operating Engineers Pension Trust Bldg

Situé à Los Angeles, United States

ICAO - CN39, IATA -

Données fournies par Airmate  

Information générale

Coordonnées: N34°3'43" W118°17'28"
Élévation : 441 feet MSL.
Variation magnétique : 14° East
Voir autres Aéroports à California

Données opérationnelles

Special qualification required
Heure actuelle UTC:
Heure actuelle locale:
Météo à : KSMO - Santa Monica Muni ( 16 km )
METAR: KSMO 261351Z AUTO 00000KT 10SM CLR 18/15 A2990 RMK AO2 SLP124 T01830150
TAF: KSMO 261125Z 2612/2712 VRB03KT P6SM SKC FM261900 24008KT P6SM SKC FM270400 VRB03KT P6SM SKC
Voir NOTAMs / SUP AIP / TFR affectant cet aéroport [VIEW]
Fréquences de communication: [VIEW]

Pistes:

Coordonnées de l'aéroport

Adresse: Los Angeles United States

Vue satellite de CN39